sensor_id;sensor_type;location;lat;lon;timestamp;pressure;altitude;pressure_sealevel;temperature;humidity
72636;BME280;60679;48.888;15.544;2023-03-26T00:00:58;95494.16;;;5.09;69.94
72636;BME280;60679;48.888;15.544;2023-03-26T00:03:23;95484.91;;;5.12;69.82
72636;BME280;60679;48.888;15.544;2023-03-26T00:06:03;95496.84;;;5.16;70.04
72636;BME280;60679;48.888;15.544;2023-03-26T00:08:30;95483.84;;;5.19;69.83
72636;BME280;60679;48.888;15.544;2023-03-26T00:10:56;95492.69;;;5.27;70.08
72636;BME280;60679;48.888;15.544;2023-03-26T00:13:21;95492.28;;;5.36;70.00
72636;BME280;60679;48.888;15.544;2023-03-26T00:15:47;95478.84;;;5.43;69.95
72636;BME280;60679;48.888;15.544;2023-03-26T00:18:12;95481.50;;;5.49;70.10
72636;BME280;60679;48.888;15.544;2023-03-26T00:20:38;95481.50;;;5.49;70.09
72636;BME280;60679;48.888;15.544;2023-03-26T00:23:05;95484.78;;;5.51;69.95
72636;BME280;60679;48.888;15.544;2023-03-26T00:25:32;95478.41;;;5.52;70.02
72636;BME280;60679;48.888;15.544;2023-03-26T00:27:59;95470.78;;;5.56;69.84
72636;BME280;60679;48.888;15.544;2023-03-26T00:30:24;95474.47;;;5.55;70.07
72636;BME280;60679;48.888;15.544;2023-03-26T00:32:50;95474.69;;;5.53;70.13
72636;BME280;60679;48.888;15.544;2023-03-26T00:35:16;95475.31;;;5.49;70.27
72636;BME280;60679;48.888;15.544;2023-03-26T00:37:42;95466.88;;;5.45;70.18
72636;BME280;60679;48.888;15.544;2023-03-26T00:40:10;95460.09;;;5.43;70.24
72636;BME280;60679;48.888;15.544;2023-03-26T00:42:38;95461.78;;;5.37;69.98
72636;BME280;60679;48.888;15.544;2023-03-26T00:45:10;95460.94;;;5.37;70.23
72636;BME280;60679;48.888;15.544;2023-03-26T00:47:36;95466.28;;;5.37;70.23
72636;BME280;60679;48.888;15.544;2023-03-26T00:50:02;95470.81;;;5.43;70.02
72636;BME280;60679;48.888;15.544;2023-03-26T00:52:29;95465.63;;;5.48;70.31
72636;BME280;60679;48.888;15.544;2023-03-26T00:54:54;95475.13;;;5.50;70.07
72636;BME280;60679;48.888;15.544;2023-03-26T00:57:21;95479.25;;;5.46;70.28
72636;BME280;60679;48.888;15.544;2023-03-26T00:59:48;95477.41;;;5.47;70.23
72636;BME280;60679;48.888;15.544;2023-03-26T01:02:16;95477.59;;;5.52;70.14
72636;BME280;60679;48.888;15.544;2023-03-26T01:04:56;95474.25;;;5.56;70.36
72636;BME280;60679;48.888;15.544;2023-03-26T01:07:27;95464.19;;;5.58;70.23
72636;BME280;60679;48.888;15.544;2023-03-26T01:09:55;95461.28;;;5.60;70.18
72636;BME280;60679;48.888;15.544;2023-03-26T01:12:26;95471.38;;;5.58;70.24
72636;BME280;60679;48.888;15.544;2023-03-26T01:14:54;95448.72;;;5.60;70.16
72636;BME280;60679;48.888;15.544;2023-03-26T01:17:22;95454.06;;;5.60;70.29
72636;BME280;60679;48.888;15.544;2023-03-26T01:19:56;95449.31;;;5.62;70.47
72636;BME280;60679;48.888;15.544;2023-03-26T01:22:26;95449.31;;;5.62;70.14
72636;BME280;60679;48.888;15.544;2023-03-26T01:24:52;95448.72;;;5.54;70.39
72636;BME280;60679;48.888;15.544;2023-03-26T01:30:33;95440.31;;;5.50;70.29
72636;BME280;60679;48.888;15.544;2023-03-26T01:33:08;95452.25;;;5.48;70.42
72636;BME280;60679;48.888;15.544;2023-03-26T01:35:55;95442.63;;;5.40;70.22
72636;BME280;60679;48.888;15.544;2023-03-26T01:38:39;95444.63;;;5.45;70.45
72636;BME280;60679;48.888;15.544;2023-03-26T01:41:43;95440.31;;;5.50;70.23
72636;BME280;60679;48.888;15.544;2023-03-26T01:44:19;95439.69;;;5.48;70.24
72636;BME280;60679;48.888;15.544;2023-03-26T01:46:48;95442.19;;;5.43;70.36
72636;BME280;60679;48.888;15.544;2023-03-26T01:49:17;95438.28;;;5.39;70.36
72636;BME280;60679;48.888;15.544;2023-03-26T01:51:43;95435.41;;;5.41;70.37
72636;BME280;60679;48.888;15.544;2023-03-26T01:54:13;95425.47;;;5.48;70.40
72636;BME280;60679;48.888;15.544;2023-03-26T01:56:57;95431.41;;;5.56;70.49
72636;BME280;60679;48.888;15.544;2023-03-26T02:02:17;95423.16;;;5.64;70.41
72636;BME280;60679;48.888;15.544;2023-03-26T02:09:52;95426.47;;;5.53;70.37
72636;BME280;60679;48.888;15.544;2023-03-26T02:12:20;95426.28;;;5.55;70.42
72636;BME280;60679;48.888;15.544;2023-03-26T02:14:47;95421.75;;;5.55;70.41
72636;BME280;60679;48.888;15.544;2023-03-26T02:17:13;95422.13;;;5.59;70.56
72636;BME280;60679;48.888;15.544;2023-03-26T02:19:38;95426.88;;;5.57;70.64
72636;BME280;60679;48.888;15.544;2023-03-26T02:22:11;95430.78;;;5.61;70.60
72636;BME280;60679;48.888;15.544;2023-03-26T02:24:40;95423.19;;;5.58;70.46
72636;BME280;60679;48.888;15.544;2023-03-26T02:27:06;95422.53;;;5.62;70.47
72636;BME280;60679;48.888;15.544;2023-03-26T02:29:36;95435.66;;;5.70;70.50
72636;BME280;60679;48.888;15.544;2023-03-26T02:32:06;95431.53;;;5.74;70.47
72636;BME280;60679;48.888;15.544;2023-03-26T02:34:32;95432.63;;;5.67;70.62
72636;BME280;60679;48.888;15.544;2023-03-26T02:36:57;95436.16;;;5.61;70.55
72636;BME280;60679;48.888;15.544;2023-03-26T02:39:23;95432.06;;;5.52;70.46
72636;BME280;60679;48.888;15.544;2023-03-26T02:41:49;95434.72;;;5.58;70.91
72636;BME280;60679;48.888;15.544;2023-03-26T02:44:15;95426.72;;;5.52;70.55
72636;BME280;60679;48.888;15.544;2023-03-26T02:46:40;95431.63;;;5.55;70.91
72636;BME280;60679;48.888;15.544;2023-03-26T02:49:05;95425.88;;;5.51;70.77
72636;BME280;60679;48.888;15.544;2023-03-26T02:51:31;95420.59;;;5.38;70.75
72636;BME280;60679;48.888;15.544;2023-03-26T02:54:02;95420.19;;;5.41;70.78
72636;BME280;60679;48.888;15.544;2023-03-26T02:56:28;95423.69;;;5.35;70.61
72636;BME280;60679;48.888;15.544;2023-03-26T02:58:54;95434.00;;;5.32;70.73
72636;BME280;60679;48.888;15.544;2023-03-26T03:01:20;95428.22;;;5.35;71.05
72636;BME280;60679;48.888;15.544;2023-03-26T03:03:46;95423.88;;;5.34;70.82
72636;BME280;60679;48.888;15.544;2023-03-26T03:06:13;95421.03;;;5.29;70.67
72636;BME280;60679;48.888;15.544;2023-03-26T03:08:38;95423.88;;;5.34;70.71
72636;BME280;60679;48.888;15.544;2023-03-26T03:11:11;95424.75;;;5.28;70.81
72636;BME280;60679;48.888;15.544;2023-03-26T03:13:37;95419.38;;;5.34;70.73
72636;BME280;60679;48.888;15.544;2023-03-26T03:16:02;95417.94;;;5.32;70.57
72636;BME280;60679;48.888;15.544;2023-03-26T03:18:28;95424.75;;;5.28;70.77
72636;BME280;60679;48.888;15.544;2023-03-26T03:20:53;95426.38;;;5.35;70.80
72636;BME280;60679;48.888;15.544;2023-03-26T03:23:19;95420.84;;;5.23;70.84
72636;BME280;60679;48.888;15.544;2023-03-26T03:25:45;95418.59;;;5.27;70.95
72636;BME280;60679;48.888;15.544;2023-03-26T03:28:11;95419.41;;;5.28;70.83
72636;BME280;60679;48.888;15.544;2023-03-26T03:30:38;95422.09;;;5.21;70.63
72636;BME280;60679;48.888;15.544;2023-03-26T03:33:03;95425.03;;;5.06;70.79
72636;BME280;60679;48.888;15.544;2023-03-26T03:35:30;95422.16;;;5.01;71.02
72636;BME280;60679;48.888;15.544;2023-03-26T03:37:58;95426.50;;;5.02;70.98
72636;BME280;60679;48.888;15.544;2023-03-26T03:40:23;95418.25;;;5.04;71.25
72636;BME280;60679;48.888;15.544;2023-03-26T03:42:49;95416.22;;;4.99;71.12
72636;BME280;60679;48.888;15.544;2023-03-26T03:45:15;95418.06;;;4.99;71.07
72636;BME280;60679;48.888;15.544;2023-03-26T03:47:40;95418.84;;;5.06;71.03
72636;BME280;60679;48.888;15.544;2023-03-26T03:50:06;95414.94;;;5.08;71.12
72636;BME280;60679;48.888;15.544;2023-03-26T03:52:32;95422.34;;;5.06;70.87
72636;BME280;60679;48.888;15.544;2023-03-26T03:54:58;95418.66;;;5.07;71.19
72636;BME280;60679;48.888;15.544;2023-03-26T03:57:27;95417.81;;;5.13;70.99
72636;BME280;60679;48.888;15.544;2023-03-26T03:59:53;95410.38;;;5.15;70.86
72636;BME280;60679;48.888;15.544;2023-03-26T04:02:23;95410.22;;;5.10;71.01
72636;BME280;60679;48.888;15.544;2023-03-26T04:04:55;95416.41;;;5.04;70.90
72636;BME280;60679;48.888;15.544;2023-03-26T04:07:24;95419.09;;;4.98;70.82
72636;BME280;60679;48.888;15.544;2023-03-26T04:09:50;95422.59;;;4.98;71.14
72636;BME280;60679;48.888;15.544;2023-03-26T04:12:16;95407.78;;;4.89;71.04
72636;BME280;60679;48.888;15.544;2023-03-26T04:14:41;95406.38;;;4.80;71.08
72636;BME280;60679;48.888;15.544;2023-03-26T04:17:07;95422.22;;;4.68;71.01
72636;BME280;60679;48.888;15.544;2023-03-26T04:19:33;95413.59;;;4.66;71.40
72636;BME280;60679;48.888;15.544;2023-03-26T04:21:58;95416.69;;;4.70;71.14
72636;BME280;60679;48.888;15.544;2023-03-26T04:24:30;95414.19;;;4.68;71.19
72636;BME280;60679;48.888;15.544;2023-03-26T04:26:58;95398.19;;;4.55;71.15
72636;BME280;60679;48.888;15.544;2023-03-26T04:29:32;95395.94;;;4.52;71.25
72636;BME280;60679;48.888;15.544;2023-03-26T04:32:02;95407.03;;;4.49;71.26
72636;BME280;60679;48.888;15.544;2023-03-26T04:34:32;95402.75;;;4.48;71.42
72636;BME280;60679;48.888;15.544;2023-03-26T04:37:00;95398.78;;;4.57;71.34
72636;BME280;60679;48.888;15.544;2023-03-26T04:39:26;95401.09;;;4.47;71.31
72636;BME280;60679;48.888;15.544;2023-03-26T04:41:58;95395.94;;;4.39;71.21
72636;BME280;60679;48.888;15.544;2023-03-26T04:44:24;95392.03;;;4.42;71.43
72636;BME280;60679;48.888;15.544;2023-03-26T04:46:50;95403.75;;;4.41;71.36
72636;BME280;60679;48.888;15.544;2023-03-26T04:49:17;95410.75;;;4.42;71.13
72636;BME280;60679;48.888;15.544;2023-03-26T04:51:43;95409.31;;;4.33;71.35
72636;BME280;60679;48.888;15.544;2023-03-26T04:54:12;95402.72;;;4.35;71.54
72636;BME280;60679;48.888;15.544;2023-03-26T04:59:11;95389.38;;;4.35;71.44
72636;BME280;60679;48.888;15.544;2023-03-26T05:01:39;95388.75;;;4.46;71.07
72636;BME280;60679;48.888;15.544;2023-03-26T05:04:05;95392.19;;;4.66;71.14
72636;BME280;60679;48.888;15.544;2023-03-26T05:06:31;95383.56;;;4.71;71.10
72636;BME280;60679;48.888;15.544;2023-03-26T05:09:01;95394.66;;;4.81;70.94
72636;BME280;60679;48.888;15.544;2023-03-26T05:11:27;95385.97;;;4.86;71.13
72636;BME280;60679;48.888;15.544;2023-03-26T05:13:53;95389.06;;;4.89;70.67
72636;BME280;60679;48.888;15.544;2023-03-26T05:16:19;95379.97;;;4.97;70.69
72636;BME280;60679;48.888;15.544;2023-03-26T05:18:44;95382.63;;;5.03;70.52
72636;BME280;60679;48.888;15.544;2023-03-26T05:21:11;95380.56;;;5.05;70.60
72636;BME280;60679;48.888;15.544;2023-03-26T05:23:37;95381.56;;;5.11;70.56
72636;BME280;60679;48.888;15.544;2023-03-26T05:26:05;95376.22;;;5.11;70.30
72636;BME280;60679;48.888;15.544;2023-03-26T05:28:31;95367.56;;;5.15;70.48
72636;BME280;60679;48.888;15.544;2023-03-26T05:30:57;95368.56;;;5.28;70.51
72636;BME280;60679;48.888;15.544;2023-03-26T05:33:25;95363.97;;;5.35;70.30
72636;BME280;60679;48.888;15.544;2023-03-26T05:36:08;95362.13;;;5.42;70.30
72636;BME280;60679;48.888;15.544;2023-03-26T05:38:34;95357.94;;;5.52;70.01
72636;BME280;60679;48.888;15.544;2023-03-26T05:41:04;95357.06;;;5.58;70.04
72636;BME280;60679;48.888;15.544;2023-03-26T05:43:30;95352.72;;;5.64;70.25
72636;BME280;60679;48.888;15.544;2023-03-26T05:45:56;95358.00;;;5.70;69.68
72636;BME280;60679;48.888;15.544;2023-03-26T05:48:22;95359.38;;;5.79;69.69
72636;BME280;60679;48.888;15.544;2023-03-26T05:50:49;95350.94;;;5.82;69.78
72636;BME280;60679;48.888;15.544;2023-03-26T05:53:16;95356.88;;;5.91;69.59
72636;BME280;60679;48.888;15.544;2023-03-26T05:55:44;95350.25;;;5.94;69.57
72636;BME280;60679;48.888;15.544;2023-03-26T05:58:15;95352.66;;;6.02;69.33
72636;BME280;60679;48.888;15.544;2023-03-26T06:00:41;95355.91;;;6.10;69.62
72636;BME280;60679;48.888;15.544;2023-03-26T06:03:07;95354.59;;;6.19;69.42
72636;BME280;60679;48.888;15.544;2023-03-26T06:05:38;95356.16;;;6.27;69.17
72636;BME280;60679;48.888;15.544;2023-03-26T06:08:04;95359.03;;;6.32;69.48
72636;BME280;60679;48.888;15.544;2023-03-26T06:10:30;95362.31;;;6.34;69.02
72636;BME280;60679;48.888;15.544;2023-03-26T06:12:56;95362.47;;;6.39;68.82
72636;BME280;60679;48.888;15.544;2023-03-26T06:15:22;95349.34;;;6.49;69.24
72636;BME280;60679;48.888;15.544;2023-03-26T06:17:48;95357.28;;;6.62;68.91
72636;BME280;60679;48.888;15.544;2023-03-26T06:20:14;95358.28;;;6.68;68.51
72636;BME280;60679;48.888;15.544;2023-03-26T06:22:40;95352.59;;;6.76;68.99
72636;BME280;60679;48.888;15.544;2023-03-26T06:25:06;95352.31;;;6.84;68.65
72636;BME280;60679;48.888;15.544;2023-03-26T06:27:31;95351.44;;;6.90;68.69
72636;BME280;60679;48.888;15.544;2023-03-26T06:29:57;95350.28;;;6.97;68.89
72636;BME280;60679;48.888;15.544;2023-03-26T06:32:22;95344.84;;;7.04;68.59
72636;BME280;60679;48.888;15.544;2023-03-26T06:34:48;95351.13;;;7.16;68.36
72636;BME280;60679;48.888;15.544;2023-03-26T06:37:14;95355.59;;;7.22;68.54
72636;BME280;60679;48.888;15.544;2023-03-26T06:39:40;95352.38;;;7.32;68.28
72636;BME280;60679;48.888;15.544;2023-03-26T06:42:06;95357.66;;;7.38;68.11
72636;BME280;60679;48.888;15.544;2023-03-26T06:44:32;95359.44;;;7.44;68.20
72636;BME280;60679;48.888;15.544;2023-03-26T06:46:57;95373.38;;;7.53;68.12
72636;BME280;60679;48.888;15.544;2023-03-26T06:49:23;95370.97;;;7.63;68.08
72636;BME280;60679;48.888;15.544;2023-03-26T06:51:48;95387.38;;;7.73;68.15
72636;BME280;60679;48.888;15.544;2023-03-26T06:54:14;95376.44;;;7.86;67.79
72636;BME280;60679;48.888;15.544;2023-03-26T06:56:39;95385.19;;;7.93;67.89
72636;BME280;60679;48.888;15.544;2023-03-26T06:59:05;95385.00;;;7.95;67.45
72636;BME280;60679;48.888;15.544;2023-03-26T07:01:30;95385.13;;;8.00;67.56
72636;BME280;60679;48.888;15.544;2023-03-26T07:03:56;95379.88;;;8.05;67.47
72636;BME280;60679;48.888;15.544;2023-03-26T07:06:22;95386.19;;;8.10;67.40
72636;BME280;60679;48.888;15.544;2023-03-26T07:08:48;95387.41;;;8.26;67.16
72636;BME280;60679;48.888;15.544;2023-03-26T07:11:13;95389.00;;;8.45;67.29
72636;BME280;60679;48.888;15.544;2023-03-26T07:13:41;95384.19;;;8.59;67.11
72636;BME280;60679;48.888;15.544;2023-03-26T07:16:07;95388.88;;;8.75;66.80
72636;BME280;60679;48.888;15.544;2023-03-26T07:18:32;95384.91;;;8.89;66.32
72636;BME280;60679;48.888;15.544;2023-03-26T07:20:58;95383.97;;;9.07;66.33
72636;BME280;60679;48.888;15.544;2023-03-26T07:23:25;95388.50;;;9.29;66.06
72636;BME280;60679;48.888;15.544;2023-03-26T07:25:52;95386.69;;;9.47;65.65
72636;BME280;60679;48.888;15.544;2023-03-26T07:28:33;95388.75;;;9.68;65.25
72636;BME280;60679;48.888;15.544;2023-03-26T07:33:52;95381.59;;;10.30;64.56
72636;BME280;60679;48.888;15.544;2023-03-26T07:42:16;95359.34;;;11.71;62.15
72636;BME280;60679;48.888;15.544;2023-03-26T07:47:26;95353.28;;;12.71;60.43
72636;BME280;60679;48.888;15.544;2023-03-26T07:49:54;95344.72;;;13.26;59.37
72636;BME280;60679;48.888;15.544;2023-03-26T07:52:22;95353.25;;;13.50;58.99
72636;BME280;60679;48.888;15.544;2023-03-26T07:54:48;95337.16;;;13.28;59.50
72636;BME280;60679;48.888;15.544;2023-03-26T07:57:25;95349.78;;;13.59;58.78
72636;BME280;60679;48.888;15.544;2023-03-26T08:00:22;95352.34;;;13.96;58.01
72636;BME280;60679;48.888;15.544;2023-03-26T08:05:34;95352.69;;;13.01;59.25
72636;BME280;60679;48.888;15.544;2023-03-26T08:08:18;95348.72;;;12.77;59.65
72636;BME280;60679;48.888;15.544;2023-03-26T08:16:27;95352.47;;;13.54;58.72
72636;BME280;60679;48.888;15.544;2023-03-26T08:21:49;95351.81;;;13.32;58.49
72636;BME280;60679;48.888;15.544;2023-03-26T08:24:34;95357.84;;;13.49;58.16
72636;BME280;60679;48.888;15.544;2023-03-26T08:27:21;95347.16;;;13.79;57.11
72636;BME280;60679;48.888;15.544;2023-03-26T08:30:24;95347.03;;;14.36;56.67
72636;BME280;60679;48.888;15.544;2023-03-26T08:32:56;95354.94;;;14.78;55.07
72636;BME280;60679;48.888;15.544;2023-03-26T08:35:22;95355.19;;;14.92;54.57
72636;BME280;60679;48.888;15.544;2023-03-26T08:37:49;95344.59;;;14.55;55.08
72636;BME280;60679;48.888;15.544;2023-03-26T08:40:45;95339.91;;;14.15;55.99
72636;BME280;60679;48.888;15.544;2023-03-26T08:46:11;95329.44;;;13.67;56.89
72636;BME280;60679;48.888;15.544;2023-03-26T09:11:10;95296.41;;;15.26;53.82
72636;BME280;60679;48.888;15.544;2023-03-26T09:27:37;95279.41;;;14.35;54.94
72636;BME280;60679;48.888;15.544;2023-03-26T09:35:52;95278.00;;;14.17;54.99
72636;BME280;60679;48.888;15.544;2023-03-26T09:46:39;95264.44;;;14.73;53.18
72636;BME280;60679;48.888;15.544;2023-03-26T10:00:27;95217.34;;;25.72;34.95
72636;BME280;60679;48.888;15.544;2023-03-26T10:03:24;95205.81;;;25.70;37.05
72636;BME280;60679;48.888;15.544;2023-03-26T10:16:08;95215.28;;;15.48;50.10
72636;BME280;60679;48.888;15.544;2023-03-26T10:24:32;95200.75;;;16.69;46.54
72636;BME280;60679;48.888;15.544;2023-03-26T10:30:02;95189.50;;;20.62;40.32
72636;BME280;60679;48.888;15.544;2023-03-26T10:32:49;95183.09;;;20.44;41.17
72636;BME280;60679;48.888;15.544;2023-03-26T10:51:48;95162.50;;;20.55;40.05
72636;BME280;60679;48.888;15.544;2023-03-26T11:00:14;95146.44;;;21.02;39.99
72636;BME280;60679;48.888;15.544;2023-03-26T11:08:29;95127.19;;;20.32;40.58
72636;BME280;60679;48.888;15.544;2023-03-26T11:13:52;95119.28;;;21.40;38.76
72636;BME280;60679;48.888;15.544;2023-03-26T11:21:59;95099.00;;;22.26;37.94
72636;BME280;60679;48.888;15.544;2023-03-26T11:24:53;95103.34;;;21.59;38.59
72636;BME280;60679;48.888;15.544;2023-03-26T11:27:43;95094.84;;;21.12;38.82
72636;BME280;60679;48.888;15.544;2023-03-26T11:30:36;95092.03;;;21.04;39.40
72636;BME280;60679;48.888;15.544;2023-03-26T11:33:09;95084.59;;;19.68;40.69
72636;BME280;60679;48.888;15.544;2023-03-26T11:35:37;95085.03;;;18.98;41.90
72636;BME280;60679;48.888;15.544;2023-03-26T11:40:58;95080.03;;;18.45;42.05
72636;BME280;60679;48.888;15.544;2023-03-26T11:43:31;95070.59;;;19.33;41.22
72636;BME280;60679;48.888;15.544;2023-03-26T11:45:58;95068.78;;;19.15;40.78
72636;BME280;60679;48.888;15.544;2023-03-26T11:48:29;95079.91;;;17.91;42.35
72636;BME280;60679;48.888;15.544;2023-03-26T11:51:08;95077.06;;;17.26;42.66
72636;BME280;60679;48.888;15.544;2023-03-26T11:53:36;95073.88;;;16.77;43.84
72636;BME280;60679;48.888;15.544;2023-03-26T11:58:49;95076.44;;;16.45;44.49
72636;BME280;60679;48.888;15.544;2023-03-26T12:01:23;95081.19;;;16.05;44.58
72636;BME280;60679;48.888;15.544;2023-03-26T12:04:02;95085.41;;;15.15;45.52
72636;BME280;60679;48.888;15.544;2023-03-26T12:06:29;95077.25;;;14.51;46.48
72636;BME280;60679;48.888;15.544;2023-03-26T12:08:54;95078.16;;;14.36;46.83
72636;BME280;60679;48.888;15.544;2023-03-26T12:11:29;95083.91;;;14.00;47.07
72636;BME280;60679;48.888;15.544;2023-03-26T12:14:01;95079.31;;;13.55;47.51
72636;BME280;60679;48.888;15.544;2023-03-26T12:16:28;95075.78;;;13.29;47.53
72636;BME280;60679;48.888;15.544;2023-03-26T12:19:08;95059.50;;;13.24;47.92
72636;BME280;60679;48.888;15.544;2023-03-26T12:21:48;95063.81;;;13.10;47.88
72636;BME280;60679;48.888;15.544;2023-03-26T12:24:34;95074.97;;;13.28;47.80
72636;BME280;60679;48.888;15.544;2023-03-26T12:27:19;95088.00;;;13.42;47.17
72636;BME280;60679;48.888;15.544;2023-03-26T12:29:59;95072.53;;;13.37;47.24
72636;BME280;60679;48.888;15.544;2023-03-26T12:32:38;95054.88;;;13.24;47.51
72636;BME280;60679;48.888;15.544;2023-03-26T12:35:14;95051.09;;;13.15;47.83
72636;BME280;60679;48.888;15.544;2023-03-26T12:37:43;95058.34;;;12.90;48.26
72636;BME280;60679;48.888;15.544;2023-03-26T12:42:51;95062.78;;;12.39;49.35
72636;BME280;60679;48.888;15.544;2023-03-26T12:45:28;95057.72;;;12.05;49.47
72636;BME280;60679;48.888;15.544;2023-03-26T12:47:55;95061.31;;;11.69;49.96
72636;BME280;60679;48.888;15.544;2023-03-26T12:50:28;95061.91;;;11.44;50.42
72636;BME280;60679;48.888;15.544;2023-03-26T12:55:54;95049.53;;;11.53;50.63
72636;BME280;60679;48.888;15.544;2023-03-26T13:00:55;95043.00;;;11.49;50.42
72636;BME280;60679;48.888;15.544;2023-03-26T13:06:01;95039.09;;;11.30;50.97
72636;BME280;60679;48.888;15.544;2023-03-26T13:19:40;95040.84;;;11.88;49.57
72636;BME280;60679;48.888;15.544;2023-03-26T13:22:58;95020.16;;;12.14;49.27
72636;BME280;60679;48.888;15.544;2023-03-26T13:28:27;95006.84;;;12.69;49.27
72636;BME280;60679;48.888;15.544;2023-03-26T13:34:11;95008.22;;;11.63;50.71
72636;BME280;60679;48.888;15.544;2023-03-26T13:37:05;94998.53;;;11.25;51.38
72636;BME280;60679;48.888;15.544;2023-03-26T13:48:13;94997.06;;;10.81;52.61
72636;BME280;60679;48.888;15.544;2023-03-26T13:50:43;94997.53;;;10.46;53.09
72636;BME280;60679;48.888;15.544;2023-03-26T13:53:20;94991.03;;;9.99;53.50
72636;BME280;60679;48.888;15.544;2023-03-26T13:55:51;94989.63;;;9.53;54.12
72636;BME280;60679;48.888;15.544;2023-03-26T14:01:18;94990.97;;;9.34;54.12
72636;BME280;60679;48.888;15.544;2023-03-26T14:04:07;94995.06;;;9.19;54.48
72636;BME280;60679;48.888;15.544;2023-03-26T14:09:11;94986.75;;;9.04;55.17
72636;BME280;60679;48.888;15.544;2023-03-26T14:12:01;94980.22;;;9.00;55.19
72636;BME280;60679;48.888;15.544;2023-03-26T14:15:02;94977.38;;;8.90;55.92
72636;BME280;60679;48.888;15.544;2023-03-26T14:18:00;94974.44;;;8.92;56.54
72636;BME280;60679;48.888;15.544;2023-03-26T14:20:53;94969.69;;;8.82;57.32
72636;BME280;60679;48.888;15.544;2023-03-26T14:24:03;94959.41;;;8.79;57.38
72636;BME280;60679;48.888;15.544;2023-03-26T14:34:22;94930.38;;;9.36;57.59
72636;BME280;60679;48.888;15.544;2023-03-26T14:37:14;94923.75;;;9.44;57.72
72636;BME280;60679;48.888;15.544;2023-03-26T14:40:20;94917.03;;;9.46;57.95
72636;BME280;60679;48.888;15.544;2023-03-26T14:52:04;94903.34;;;9.48;58.52
72636;BME280;60679;48.888;15.544;2023-03-26T14:54:36;94900.06;;;9.46;58.64
72636;BME280;60679;48.888;15.544;2023-03-26T15:14:23;94893.41;;;9.32;59.84
72636;BME280;60679;48.888;15.544;2023-03-26T15:31:07;94865.19;;;9.34;59.89
72636;BME280;60679;48.888;15.544;2023-03-26T15:39:42;94862.84;;;9.43;60.27
72636;BME280;60679;48.888;15.544;2023-03-26T15:42:24;94869.34;;;9.47;60.31
72636;BME280;60679;48.888;15.544;2023-03-26T15:53:33;94846.38;;;9.39;60.78
72636;BME280;60679;48.888;15.544;2023-03-26T15:58:51;94837.91;;;9.31;61.15
72636;BME280;60679;48.888;15.544;2023-03-26T16:01:55;94834.09;;;9.26;61.11
72636;BME280;60679;48.888;15.544;2023-03-26T16:04:49;94829.53;;;9.27;61.21
72636;BME280;60679;48.888;15.544;2023-03-26T16:12:34;94846.50;;;9.06;61.82
72636;BME280;60679;48.888;15.544;2023-03-26T16:20:45;94841.59;;;9.03;62.01
72636;BME280;60679;48.888;15.544;2023-03-26T16:23:24;94848.03;;;9.02;62.13
72636;BME280;60679;48.888;15.544;2023-03-26T16:26:11;94843.59;;;8.91;62.21
72636;BME280;60679;48.888;15.544;2023-03-26T16:33:47;94852.91;;;8.66;62.74
72636;BME280;60679;48.888;15.544;2023-03-26T16:41:51;94863.78;;;8.55;63.17
72636;BME280;60679;48.888;15.544;2023-03-26T16:51:24;94847.88;;;8.37;63.36
72636;BME280;60679;48.888;15.544;2023-03-26T16:56:10;94844.09;;;8.04;63.71
72636;BME280;60679;48.888;15.544;2023-03-26T16:58:51;94845.78;;;7.94;64.08
72636;BME280;60679;48.888;15.544;2023-03-26T17:01:55;94838.94;;;7.86;64.00
72636;BME280;60679;48.888;15.544;2023-03-26T17:04:28;94845.38;;;7.85;64.30
72636;BME280;60679;48.888;15.544;2023-03-26T17:07:31;94846.19;;;7.86;64.27
72636;BME280;60679;48.888;15.544;2023-03-26T17:10:19;94840.00;;;7.85;64.45
72636;BME280;60679;48.888;15.544;2023-03-26T17:21:03;94836.56;;;7.45;65.10
72636;BME280;60679;48.888;15.544;2023-03-26T17:29:13;94851.59;;;7.18;65.26
72636;BME280;60679;48.888;15.544;2023-03-26T17:31:45;94850.09;;;7.10;65.65
72636;BME280;60679;48.888;15.544;2023-03-26T17:37:33;94836.34;;;6.95;65.88
72636;BME280;60679;48.888;15.544;2023-03-26T17:42:28;94841.03;;;6.88;65.88
72636;BME280;60679;48.888;15.544;2023-03-26T17:44:58;94844.19;;;6.85;65.90
72636;BME280;60679;48.888;15.544;2023-03-26T17:47:27;94836.97;;;6.85;65.84
72636;BME280;60679;48.888;15.544;2023-03-26T17:49:59;94839.63;;;6.97;65.80
72636;BME280;60679;48.888;15.544;2023-03-26T17:52:39;94843.09;;;6.97;65.92
72636;BME280;60679;48.888;15.544;2023-03-26T17:55:08;94833.09;;;6.93;65.84
72636;BME280;60679;48.888;15.544;2023-03-26T17:57:42;94840.78;;;6.89;66.08
72636;BME280;60679;48.888;15.544;2023-03-26T18:00:18;94844.41;;;6.83;66.13
72636;BME280;60679;48.888;15.544;2023-03-26T18:02:54;94850.97;;;6.87;66.12
72636;BME280;60679;48.888;15.544;2023-03-26T18:05:23;94846.63;;;6.86;66.33
72636;BME280;60679;48.888;15.544;2023-03-26T18:16:23;94835.59;;;6.71;66.38
72636;BME280;60679;48.888;15.544;2023-03-26T18:19:03;94820.44;;;6.65;66.33
72636;BME280;60679;48.888;15.544;2023-03-26T18:21:39;94824.03;;;6.59;66.26
72636;BME280;60679;48.888;15.544;2023-03-26T18:24:06;94820.91;;;6.51;66.31
72636;BME280;60679;48.888;15.544;2023-03-26T18:26:41;94822.09;;;6.43;66.57
72636;BME280;60679;48.888;15.544;2023-03-26T18:31:40;94812.28;;;6.49;66.73
72636;BME280;60679;48.888;15.544;2023-03-26T18:34:17;94799.81;;;6.54;66.62
72636;BME280;60679;48.888;15.544;2023-03-26T18:37:13;94809.47;;;6.55;66.73
72636;BME280;60679;48.888;15.544;2023-03-26T18:39:41;94816.94;;;6.53;66.49
72636;BME280;60679;48.888;15.544;2023-03-26T18:42:17;94817.97;;;6.52;66.77
72636;BME280;60679;48.888;15.544;2023-03-26T18:44:48;94810.19;;;6.51;66.71
72636;BME280;60679;48.888;15.544;2023-03-26T18:47:18;94815.53;;;6.51;66.82
72636;BME280;60679;48.888;15.544;2023-03-26T18:49:46;94811.47;;;6.48;66.63
72636;BME280;60679;48.888;15.544;2023-03-26T18:52:15;94807.28;;;6.41;66.63